CYOW/YOW METAR and TAF weather

Enter ICAO airport designator
Station Type Date Time Source
CYOW METAR 2021/07/29 07:00 UTC NOAA

CYOW 290700Z 22003KT 15SM SCT070 SCT140 BKN230 14/13 A2997 RMK AC3AC1CI1 SLP151 DENSITY ALT 400FT


Station Type Date Time Source
CYOW Decoded METAR 2021/07/29 07:00 UTC NOAA

Ottawa Int'L. Ont., Canada (CYOW) 45-19N 075-40W 114M
Jul 29, 2021 - 03:00 AM EDT / 2021.07.29 0700 UTC
Wind: from the SW (220 degrees) at 3 MPH (3 KT):0
Visibility: 15 mile(s):0
Sky conditions: mostly cloudy
Temperature: 57 F (14 C)
Dew Point: 55 F (13 C)
Relative Humidity: 93%
Pressure (altimeter): 29.97 in. Hg (1014 hPa)
ob: CYOW 290700Z 22003KT 15SM SCT070 SCT140 BKN230 14/13 A2997 RMK AC3AC1CI1 SLP151 DENSITY ALT 400FT
cycle: 7

Station Type Date Time Source
CYOW TAF 2021/07/29 06:42 UTC NOAA

TAF CYOW 290538Z 2906/3006 17005KT P6SM FEW070 SCT150
FM290900 17005KT P6SM SCT060 BKN150
BECMG 2910/2912 BKN060 OVC130
FM291500 17008KT P6SM -SHRA SCT020 OVC070
FM291800 13009KT 4SM -RA BR SCT015 OVC040
TEMPO 2918/3002 SCT008 OVC015 PROB30 2918/2923 2SM TSRA BR BKN008 OVC020CB
FM300200 29006KT 4SM -RA BR OVC008 PROB30 3003/3006 2SM TSRA BR OVC005CB
RMK NXT FCST BY 290900Z

Example: see airport list